sensor_id;sensor_type;location;lat;lon;timestamp;temperature;humidity
47546;DHT22;50104;52.002;4.688;2023-08-31T00:01:38;13.50;85.60
47546;DHT22;50104;52.002;4.688;2023-08-31T00:06:39;13.60;85.90
47546;DHT22;50104;52.002;4.688;2023-08-31T00:11:39;13.60;86.00
47546;DHT22;50104;52.002;4.688;2023-08-31T00:16:40;13.70;86.60
47546;DHT22;50104;52.002;4.688;2023-08-31T00:21:41;13.70;86.80
47546;DHT22;50104;52.002;4.688;2023-08-31T00:26:42;13.80;86.60
47546;DHT22;50104;52.002;4.688;2023-08-31T00:31:43;13.90;86.70
47546;DHT22;50104;52.002;4.688;2023-08-31T00:36:45;14.00;87.40
47546;DHT22;50104;52.002;4.688;2023-08-31T00:41:46;14.00;87.20
47546;DHT22;50104;52.002;4.688;2023-08-31T00:46:47;14.20;87.30
47546;DHT22;50104;52.002;4.688;2023-08-31T00:51:48;14.20;87.00
47546;DHT22;50104;52.002;4.688;2023-08-31T00:56:54;14.30;86.60
47546;DHT22;50104;52.002;4.688;2023-08-31T01:02:06;14.30;86.50
47546;DHT22;50104;52.002;4.688;2023-08-31T01:07:24;14.30;86.10
47546;DHT22;50104;52.002;4.688;2023-08-31T01:12:50;14.30;85.40
47546;DHT22;50104;52.002;4.688;2023-08-31T01:17:54;14.20;84.90
47546;DHT22;50104;52.002;4.688;2023-08-31T01:23:09;14.20;84.70
47546;DHT22;50104;52.002;4.688;2023-08-31T01:28:12;14.10;84.30
47546;DHT22;50104;52.002;4.688;2023-08-31T01:33:12;14.00;84.20
47546;DHT22;50104;52.002;4.688;2023-08-31T01:38:15;14.00;84.40
47546;DHT22;50104;52.002;4.688;2023-08-31T01:43:21;13.90;85.10
47546;DHT22;50104;52.002;4.688;2023-08-31T01:48:23;13.90;85.20
47546;DHT22;50104;52.002;4.688;2023-08-31T01:53:23;13.90;85.50
47546;DHT22;50104;52.002;4.688;2023-08-31T01:58:24;13.90;86.00
47546;DHT22;50104;52.002;4.688;2023-08-31T02:03:25;13.90;85.90
47546;DHT22;50104;52.002;4.688;2023-08-31T02:08:26;13.90;85.90
47546;DHT22;50104;52.002;4.688;2023-08-31T02:13:27;13.90;86.00
47546;DHT22;50104;52.002;4.688;2023-08-31T02:18:27;13.90;86.10
47546;DHT22;50104;52.002;4.688;2023-08-31T02:23:28;13.90;86.00
47546;DHT22;50104;52.002;4.688;2023-08-31T02:28:29;13.90;86.10
47546;DHT22;50104;52.002;4.688;2023-08-31T02:33:30;13.90;86.00
47546;DHT22;50104;52.002;4.688;2023-08-31T02:38:31;13.90;85.90
47546;DHT22;50104;52.002;4.688;2023-08-31T02:43:32;13.90;85.80
47546;DHT22;50104;52.002;4.688;2023-08-31T02:48:33;13.90;85.60
47546;DHT22;50104;52.002;4.688;2023-08-31T02:53:34;13.90;85.20
47546;DHT22;50104;52.002;4.688;2023-08-31T02:58:34;13.80;85.00
47546;DHT22;50104;52.002;4.688;2023-08-31T03:03:35;13.80;85.50
47546;DHT22;50104;52.002;4.688;2023-08-31T03:08:36;13.70;85.30
47546;DHT22;50104;52.002;4.688;2023-08-31T03:13:38;13.70;85.20
47546;DHT22;50104;52.002;4.688;2023-08-31T03:18:38;13.60;85.20
47546;DHT22;50104;52.002;4.688;2023-08-31T03:23:39;13.50;85.30
47546;DHT22;50104;52.002;4.688;2023-08-31T03:28:40;13.50;85.90
47546;DHT22;50104;52.002;4.688;2023-08-31T03:33:41;13.40;85.80
47546;DHT22;50104;52.002;4.688;2023-08-31T03:38:42;13.40;86.10
47546;DHT22;50104;52.002;4.688;2023-08-31T03:43:42;13.40;85.70
47546;DHT22;50104;52.002;4.688;2023-08-31T03:48:43;13.30;85.70
47546;DHT22;50104;52.002;4.688;2023-08-31T03:53:45;13.30;85.30
47546;DHT22;50104;52.002;4.688;2023-08-31T03:58:46;13.20;85.70
47546;DHT22;50104;52.002;4.688;2023-08-31T04:03:46;13.20;85.20
47546;DHT22;50104;52.002;4.688;2023-08-31T04:08:47;13.10;85.40
47546;DHT22;50104;52.002;4.688;2023-08-31T04:13:48;13.10;85.50
47546;DHT22;50104;52.002;4.688;2023-08-31T04:18:49;13.00;85.30
47546;DHT22;50104;52.002;4.688;2023-08-31T04:23:52;13.00;85.30
47546;DHT22;50104;52.002;4.688;2023-08-31T04:28:52;13.00;85.50
47546;DHT22;50104;52.002;4.688;2023-08-31T04:33:53;12.90;85.60
47546;DHT22;50104;52.002;4.688;2023-08-31T04:38:54;12.90;86.10
47546;DHT22;50104;52.002;4.688;2023-08-31T04:43:55;12.90;86.50
47546;DHT22;50104;52.002;4.688;2023-08-31T04:48:55;12.90;86.60
47546;DHT22;50104;52.002;4.688;2023-08-31T04:53:56;12.90;86.60
47546;DHT22;50104;52.002;4.688;2023-08-31T04:58:57;12.90;86.70
47546;DHT22;50104;52.002;4.688;2023-08-31T05:03:58;12.90;86.70
47546;DHT22;50104;52.002;4.688;2023-08-31T05:08:59;12.90;87.10
47546;DHT22;50104;52.002;4.688;2023-08-31T05:14:00;13.00;86.80
47546;DHT22;50104;52.002;4.688;2023-08-31T05:19:01;13.00;86.80
47546;DHT22;50104;52.002;4.688;2023-08-31T05:24:03;13.00;87.10
47546;DHT22;50104;52.002;4.688;2023-08-31T05:29:04;13.10;87.20
47546;DHT22;50104;52.002;4.688;2023-08-31T05:34:06;13.10;87.20
47546;DHT22;50104;52.002;4.688;2023-08-31T05:39:06;13.20;87.10
47546;DHT22;50104;52.002;4.688;2023-08-31T05:44:09;13.20;86.90
47546;DHT22;50104;52.002;4.688;2023-08-31T05:49:10;13.30;86.60
47546;DHT22;50104;52.002;4.688;2023-08-31T05:54:11;13.30;86.60
47546;DHT22;50104;52.002;4.688;2023-08-31T05:59:13;13.30;86.40
47546;DHT22;50104;52.002;4.688;2023-08-31T06:04:14;13.40;86.40
47546;DHT22;50104;52.002;4.688;2023-08-31T06:09:15;13.40;86.40
47546;DHT22;50104;52.002;4.688;2023-08-31T06:14:16;13.50;86.50
47546;DHT22;50104;52.002;4.688;2023-08-31T06:19:17;13.50;86.10
47546;DHT22;50104;52.002;4.688;2023-08-31T06:24:18;13.50;85.50
47546;DHT22;50104;52.002;4.688;2023-08-31T06:29:19;13.50;85.40
47546;DHT22;50104;52.002;4.688;2023-08-31T06:34:19;13.60;85.30
47546;DHT22;50104;52.002;4.688;2023-08-31T06:39:20;13.60;85.40
47546;DHT22;50104;52.002;4.688;2023-08-31T06:44:21;13.60;85.80
47546;DHT22;50104;52.002;4.688;2023-08-31T06:49:22;13.60;86.20
47546;DHT22;50104;52.002;4.688;2023-08-31T06:54:24;13.70;86.70
47546;DHT22;50104;52.002;4.688;2023-08-31T06:59:25;13.80;87.90
47546;DHT22;50104;52.002;4.688;2023-08-31T07:04:27;14.00;88.90
47546;DHT22;50104;52.002;4.688;2023-08-31T07:09:27;14.20;88.60
47546;DHT22;50104;52.002;4.688;2023-08-31T07:14:28;14.40;88.90
47546;DHT22;50104;52.002;4.688;2023-08-31T07:19:29;14.70;88.70
47546;DHT22;50104;52.002;4.688;2023-08-31T07:24:30;15.00;87.80
47546;DHT22;50104;52.002;4.688;2023-08-31T07:29:30;15.30;87.00
47546;DHT22;50104;52.002;4.688;2023-08-31T07:34:31;15.60;86.10
47546;DHT22;50104;52.002;4.688;2023-08-31T07:39:34;15.90;85.30
47546;DHT22;50104;52.002;4.688;2023-08-31T07:44:35;16.20;84.10
47546;DHT22;50104;52.002;4.688;2023-08-31T07:49:35;16.40;83.50
47546;DHT22;50104;52.002;4.688;2023-08-31T07:54:36;16.70;82.60
47546;DHT22;50104;52.002;4.688;2023-08-31T07:59:37;16.90;81.90
47546;DHT22;50104;52.002;4.688;2023-08-31T08:04:39;17.00;81.50
47546;DHT22;50104;52.002;4.688;2023-08-31T08:09:40;17.20;80.50
47546;DHT22;50104;52.002;4.688;2023-08-31T08:14:41;17.40;80.00
47546;DHT22;50104;52.002;4.688;2023-08-31T08:19:42;17.50;79.40
47546;DHT22;50104;52.002;4.688;2023-08-31T08:24:42;17.60;78.80
47546;DHT22;50104;52.002;4.688;2023-08-31T08:29:44;17.70;78.00
47546;DHT22;50104;52.002;4.688;2023-08-31T08:34:45;17.80;77.70
47546;DHT22;50104;52.002;4.688;2023-08-31T08:39:49;17.90;77.20
47546;DHT22;50104;52.002;4.688;2023-08-31T08:44:51;18.00;76.50
47546;DHT22;50104;52.002;4.688;2023-08-31T08:49:53;18.10;75.50
47546;DHT22;50104;52.002;4.688;2023-08-31T08:54:56;18.20;74.80
47546;DHT22;50104;52.002;4.688;2023-08-31T08:59:58;18.30;75.30
47546;DHT22;50104;52.002;4.688;2023-08-31T09:04:59;18.40;73.60
47546;DHT22;50104;52.002;4.688;2023-08-31T09:09:59;18.50;74.30
47546;DHT22;50104;52.002;4.688;2023-08-31T09:15:02;18.70;74.40
47546;DHT22;50104;52.002;4.688;2023-08-31T09:20:05;18.80;72.90
47546;DHT22;50104;52.002;4.688;2023-08-31T09:25:08;19.00;72.30
47546;DHT22;50104;52.002;4.688;2023-08-31T09:30:09;19.20;71.50
47546;DHT22;50104;52.002;4.688;2023-08-31T09:35:11;19.40;70.00
47546;DHT22;50104;52.002;4.688;2023-08-31T09:40:14;19.50;70.30
47546;DHT22;50104;52.002;4.688;2023-08-31T09:45:18;19.70;67.60
47546;DHT22;50104;52.002;4.688;2023-08-31T09:50:23;19.90;67.50
47546;DHT22;50104;52.002;4.688;2023-08-31T09:55:25;20.00;68.00
47546;DHT22;50104;52.002;4.688;2023-08-31T10:00:30;20.20;68.20
47546;DHT22;50104;52.002;4.688;2023-08-31T10:05:32;20.40;68.00
47546;DHT22;50104;52.002;4.688;2023-08-31T10:10:33;20.60;65.60
47546;DHT22;50104;52.002;4.688;2023-08-31T10:15:35;20.80;65.90
47546;DHT22;50104;52.002;4.688;2023-08-31T10:20:37;21.00;64.40
47546;DHT22;50104;52.002;4.688;2023-08-31T10:31:09;21.40;65.00
47546;DHT22;50104;52.002;4.688;2023-08-31T10:36:18;21.60;64.70
47546;DHT22;50104;52.002;4.688;2023-08-31T10:41:20;21.80;64.60
47546;DHT22;50104;52.002;4.688;2023-08-31T10:46:43;22.00;63.50
47546;DHT22;50104;52.002;4.688;2023-08-31T10:51:49;22.20;62.10
47546;DHT22;50104;52.002;4.688;2023-08-31T11:01:59;22.40;60.70
47546;DHT22;50104;52.002;4.688;2023-08-31T11:07:17;22.50;61.10
47546;DHT22;50104;52.002;4.688;2023-08-31T11:12:22;22.60;60.50
47546;DHT22;50104;52.002;4.688;2023-08-31T11:17:24;22.60;58.50
47546;DHT22;50104;52.002;4.688;2023-08-31T11:22:26;22.70;59.00
47546;DHT22;50104;52.002;4.688;2023-08-31T11:27:26;22.80;58.40
47546;DHT22;50104;52.002;4.688;2023-08-31T11:32:27;22.90;58.10
47546;DHT22;50104;52.002;4.688;2023-08-31T11:37:28;23.00;59.20
47546;DHT22;50104;52.002;4.688;2023-08-31T11:42:29;23.10;58.90
47546;DHT22;50104;52.002;4.688;2023-08-31T11:47:31;23.20;58.60
47546;DHT22;50104;52.002;4.688;2023-08-31T11:52:33;23.40;56.70
47546;DHT22;50104;52.002;4.688;2023-08-31T11:57:34;23.50;55.80
47546;DHT22;50104;52.002;4.688;2023-08-31T12:02:35;23.70;54.70
47546;DHT22;50104;52.002;4.688;2023-08-31T12:07:40;23.90;56.00
47546;DHT22;50104;52.002;4.688;2023-08-31T12:12:41;24.10;55.90
47546;DHT22;50104;52.002;4.688;2023-08-31T12:17:42;24.20;55.60
47546;DHT22;50104;52.002;4.688;2023-08-31T12:22:45;24.30;58.10
47546;DHT22;50104;52.002;4.688;2023-08-31T12:27:46;24.40;56.00
47546;DHT22;50104;52.002;4.688;2023-08-31T12:32:47;24.40;55.90
47546;DHT22;50104;52.002;4.688;2023-08-31T12:37:47;24.30;55.50
47546;DHT22;50104;52.002;4.688;2023-08-31T12:42:48;24.30;55.50
47546;DHT22;50104;52.002;4.688;2023-08-31T12:47:49;24.30;55.30
47546;DHT22;50104;52.002;4.688;2023-08-31T12:52:50;24.30;56.30
47546;DHT22;50104;52.002;4.688;2023-08-31T12:57:50;24.30;56.70
47546;DHT22;50104;52.002;4.688;2023-08-31T13:02:51;24.40;55.80
47546;DHT22;50104;52.002;4.688;2023-08-31T13:07:52;24.50;55.80
47546;DHT22;50104;52.002;4.688;2023-08-31T13:12:53;24.60;56.30
47546;DHT22;50104;52.002;4.688;2023-08-31T13:17:54;24.70;56.00
47546;DHT22;50104;52.002;4.688;2023-08-31T13:22:55;24.80;57.00
47546;DHT22;50104;52.002;4.688;2023-08-31T13:27:56;24.80;58.90
47546;DHT22;50104;52.002;4.688;2023-08-31T13:32:57;24.90;59.00
47546;DHT22;50104;52.002;4.688;2023-08-31T13:37:58;24.90;56.00
47546;DHT22;50104;52.002;4.688;2023-08-31T13:42:59;25.10;57.60
47546;DHT22;50104;52.002;4.688;2023-08-31T13:48:06;25.20;59.10
47546;DHT22;50104;52.002;4.688;2023-08-31T13:53:07;25.40;58.80
47546;DHT22;50104;52.002;4.688;2023-08-31T13:58:08;25.50;58.50
47546;DHT22;50104;52.002;4.688;2023-08-31T14:03:09;25.60;57.40
47546;DHT22;50104;52.002;4.688;2023-08-31T14:08:10;25.70;58.00
47546;DHT22;50104;52.002;4.688;2023-08-31T14:13:10;25.80;57.80
47546;DHT22;50104;52.002;4.688;2023-08-31T14:18:12;25.90;56.40
47546;DHT22;50104;52.002;4.688;2023-08-31T14:23:13;26.00;54.50
47546;DHT22;50104;52.002;4.688;2023-08-31T14:28:14;26.10;54.20
47546;DHT22;50104;52.002;4.688;2023-08-31T14:33:15;26.10;54.20
47546;DHT22;50104;52.002;4.688;2023-08-31T14:38:20;26.20;52.90
47546;DHT22;50104;52.002;4.688;2023-08-31T14:43:22;26.30;54.50
47546;DHT22;50104;52.002;4.688;2023-08-31T14:48:22;26.30;57.20
47546;DHT22;50104;52.002;4.688;2023-08-31T14:53:23;26.40;54.80
47546;DHT22;50104;52.002;4.688;2023-08-31T14:58:25;26.50;54.40
47546;DHT22;50104;52.002;4.688;2023-08-31T15:03:25;26.60;53.10
47546;DHT22;50104;52.002;4.688;2023-08-31T15:08:37;26.60;54.00
47546;DHT22;50104;52.002;4.688;2023-08-31T15:13:39;26.70;53.40
47546;DHT22;50104;52.002;4.688;2023-08-31T15:18:40;26.70;52.70
47546;DHT22;50104;52.002;4.688;2023-08-31T15:23:40;26.80;52.30
47546;DHT22;50104;52.002;4.688;2023-08-31T15:28:41;26.90;52.70
47546;DHT22;50104;52.002;4.688;2023-08-31T15:33:42;26.90;53.10
47546;DHT22;50104;52.002;4.688;2023-08-31T15:38:46;26.90;53.10
47546;DHT22;50104;52.002;4.688;2023-08-31T15:43:47;26.70;53.40
47546;DHT22;50104;52.002;4.688;2023-08-31T15:48:48;26.60;53.20
47546;DHT22;50104;52.002;4.688;2023-08-31T15:53:50;26.40;54.50
47546;DHT22;50104;52.002;4.688;2023-08-31T15:58:50;26.20;55.90
47546;DHT22;50104;52.002;4.688;2023-08-31T16:03:51;26.10;56.10
47546;DHT22;50104;52.002;4.688;2023-08-31T16:08:52;26.00;56.30
47546;DHT22;50104;52.002;4.688;2023-08-31T16:13:53;25.90;56.20
47546;DHT22;50104;52.002;4.688;2023-08-31T16:18:54;25.80;56.30
47546;DHT22;50104;52.002;4.688;2023-08-31T16:23:54;25.70;56.40
47546;DHT22;50104;52.002;4.688;2023-08-31T16:28:55;25.50;56.10
47546;DHT22;50104;52.002;4.688;2023-08-31T16:33:56;25.30;55.40
47546;DHT22;50104;52.002;4.688;2023-08-31T16:38:57;25.10;55.80
47546;DHT22;50104;52.002;4.688;2023-08-31T16:43:57;24.90;55.40
47546;DHT22;50104;52.002;4.688;2023-08-31T16:48:58;24.70;55.40
47546;DHT22;50104;52.002;4.688;2023-08-31T16:53:59;24.50;56.00
47546;DHT22;50104;52.002;4.688;2023-08-31T16:59:00;24.30;56.20
47546;DHT22;50104;52.002;4.688;2023-08-31T17:04:00;24.10;56.30
47546;DHT22;50104;52.002;4.688;2023-08-31T17:09:01;23.90;56.70
47546;DHT22;50104;52.002;4.688;2023-08-31T17:14:05;23.70;56.70
47546;DHT22;50104;52.002;4.688;2023-08-31T17:19:06;23.60;57.20
47546;DHT22;50104;52.002;4.688;2023-08-31T17:24:08;23.40;57.70
47546;DHT22;50104;52.002;4.688;2023-08-31T17:29:09;23.20;57.90
47546;DHT22;50104;52.002;4.688;2023-08-31T17:34:10;23.10;58.40
47546;DHT22;50104;52.002;4.688;2023-08-31T17:39:12;22.90;58.70
47546;DHT22;50104;52.002;4.688;2023-08-31T17:44:13;22.80;58.50
47546;DHT22;50104;52.002;4.688;2023-08-31T17:49:14;22.60;58.60
47546;DHT22;50104;52.002;4.688;2023-08-31T17:54:14;22.40;59.00
47546;DHT22;50104;52.002;4.688;2023-08-31T17:59:15;22.20;59.00
47546;DHT22;50104;52.002;4.688;2023-08-31T18:04:18;21.90;59.50
47546;DHT22;50104;52.002;4.688;2023-08-31T18:09:19;21.70;59.50
47546;DHT22;50104;52.002;4.688;2023-08-31T18:14:19;21.50;59.90
47546;DHT22;50104;52.002;4.688;2023-08-31T18:19:20;21.40;60.30
47546;DHT22;50104;52.002;4.688;2023-08-31T18:24:21;21.20;60.40
47546;DHT22;50104;52.002;4.688;2023-08-31T18:29:22;21.10;60.90
47546;DHT22;50104;52.002;4.688;2023-08-31T18:34:22;21.00;61.30
47546;DHT22;50104;52.002;4.688;2023-08-31T18:39:23;20.90;61.60
47546;DHT22;50104;52.002;4.688;2023-08-31T18:44:24;20.70;62.30
47546;DHT22;50104;52.002;4.688;2023-08-31T18:49:25;20.60;62.40
47546;DHT22;50104;52.002;4.688;2023-08-31T18:54:25;20.50;62.60
47546;DHT22;50104;52.002;4.688;2023-08-31T18:59:26;20.40;62.90
47546;DHT22;50104;52.002;4.688;2023-08-31T19:04:27;20.30;63.10
47546;DHT22;50104;52.002;4.688;2023-08-31T19:09:28;20.20;63.20
47546;DHT22;50104;52.002;4.688;2023-08-31T19:14:29;20.00;63.60
47546;DHT22;50104;52.002;4.688;2023-08-31T19:19:30;19.90;63.90
47546;DHT22;50104;52.002;4.688;2023-08-31T19:24:31;19.80;64.20
47546;DHT22;50104;52.002;4.688;2023-08-31T19:29:32;19.80;64.60
47546;DHT22;50104;52.002;4.688;2023-08-31T19:34:33;19.70;65.00
47546;DHT22;50104;52.002;4.688;2023-08-31T19:39:35;19.60;65.00
47546;DHT22;50104;52.002;4.688;2023-08-31T19:44:36;19.50;65.20
47546;DHT22;50104;52.002;4.688;2023-08-31T19:49:37;19.40;65.50
47546;DHT22;50104;52.002;4.688;2023-08-31T19:54:37;19.20;65.70
47546;DHT22;50104;52.002;4.688;2023-08-31T19:59:38;19.10;66.10
47546;DHT22;50104;52.002;4.688;2023-08-31T20:04:39;19.00;66.40
47546;DHT22;50104;52.002;4.688;2023-08-31T20:09:40;18.90;66.70
47546;DHT22;50104;52.002;4.688;2023-08-31T20:14:41;18.90;66.90
47546;DHT22;50104;52.002;4.688;2023-08-31T20:19:41;18.80;67.10
47546;DHT22;50104;52.002;4.688;2023-08-31T20:24:44;18.80;67.20
47546;DHT22;50104;52.002;4.688;2023-08-31T20:29:45;18.70;67.30
47546;DHT22;50104;52.002;4.688;2023-08-31T20:34:46;18.70;67.50
47546;DHT22;50104;52.002;4.688;2023-08-31T20:39:47;18.60;67.40
47546;DHT22;50104;52.002;4.688;2023-08-31T20:44:48;18.60;67.40
47546;DHT22;50104;52.002;4.688;2023-08-31T20:49:49;18.60;67.60
47546;DHT22;50104;52.002;4.688;2023-08-31T20:54:49;18.60;67.80
47546;DHT22;50104;52.002;4.688;2023-08-31T20:59:50;18.50;68.10
47546;DHT22;50104;52.002;4.688;2023-08-31T21:04:51;18.50;68.20
47546;DHT22;50104;52.002;4.688;2023-08-31T21:09:52;18.50;68.30
47546;DHT22;50104;52.002;4.688;2023-08-31T21:14:53;18.40;68.60
47546;DHT22;50104;52.002;4.688;2023-08-31T21:19:54;18.40;68.70
47546;DHT22;50104;52.002;4.688;2023-08-31T21:24:54;18.40;68.90
47546;DHT22;50104;52.002;4.688;2023-08-31T21:29:55;18.40;69.00
47546;DHT22;50104;52.002;4.688;2023-08-31T21:34:56;18.40;69.00
47546;DHT22;50104;52.002;4.688;2023-08-31T21:39:57;18.40;69.30
47546;DHT22;50104;52.002;4.688;2023-08-31T21:44:57;18.30;69.70
47546;DHT22;50104;52.002;4.688;2023-08-31T21:50:00;18.30;69.80
47546;DHT22;50104;52.002;4.688;2023-08-31T21:55:01;18.30;70.00
47546;DHT22;50104;52.002;4.688;2023-08-31T22:00:02;18.30;70.20
47546;DHT22;50104;52.002;4.688;2023-08-31T22:05:05;18.30;70.20
47546;DHT22;50104;52.002;4.688;2023-08-31T22:10:06;18.20;70.40
47546;DHT22;50104;52.002;4.688;2023-08-31T22:15:14;18.20;70.60
47546;DHT22;50104;52.002;4.688;2023-08-31T22:20:17;18.20;70.60
47546;DHT22;50104;52.002;4.688;2023-08-31T22:25:20;18.20;71.00
47546;DHT22;50104;52.002;4.688;2023-08-31T22:30:24;18.10;71.10
47546;DHT22;50104;52.002;4.688;2023-08-31T22:35:26;18.10;71.40
47546;DHT22;50104;52.002;4.688;2023-08-31T22:40:26;18.20;71.50
47546;DHT22;50104;52.002;4.688;2023-08-31T22:45:27;18.20;71.50
47546;DHT22;50104;52.002;4.688;2023-08-31T22:50:28;18.10;71.50
47546;DHT22;50104;52.002;4.688;2023-08-31T22:55:29;18.10;71.60
47546;DHT22;50104;52.002;4.688;2023-08-31T23:00:30;18.10;71.60
47546;DHT22;50104;52.002;4.688;2023-08-31T23:05:30;18.10;71.80
47546;DHT22;50104;52.002;4.688;2023-08-31T23:10:32;18.10;72.00
47546;DHT22;50104;52.002;4.688;2023-08-31T23:15:35;18.00;72.10
47546;DHT22;50104;52.002;4.688;2023-08-31T23:20:37;18.00;72.20
47546;DHT22;50104;52.002;4.688;2023-08-31T23:25:38;17.90;72.30
47546;DHT22;50104;52.002;4.688;2023-08-31T23:30:39;17.90;72.40
47546;DHT22;50104;52.002;4.688;2023-08-31T23:35:40;17.90;72.60
47546;DHT22;50104;52.002;4.688;2023-08-31T23:40:41;17.80;72.70
47546;DHT22;50104;52.002;4.688;2023-08-31T23:45:43;17.80;72.80
47546;DHT22;50104;52.002;4.688;2023-08-31T23:50:44;17.70;73.10
47546;DHT22;50104;52.002;4.688;2023-08-31T23:55:45;17.70;73.20
